Time;durP1;ratioP1;P1;durP2;ratioP2;P2;SDS_P1;SDS_P2;PMS_P1;PMS_P2;Temp;Humidity;BMP_temperature;BMP_pressure;BME280_temperature;BME280_humidity;BME280_pressure;Samples;Min_cycle;Max_cycle;Signal;HPM_P1;HPM_P2
2023/08/25 00:08:11;;;;;;;10.90;6.90;;;;;;;17.69;68.43;99297.70;435879;1254;139242;-66
2023/08/25 00:18:17;;;;;;;7.10;6.20;;;;;;;17.62;68.86;99301.10;435391;1257;140196;-65
2023/08/25 00:28:23;;;;;;;8.70;7.40;;;;;;;17.57;69.21;99291.42;435833;1257;139642;-65
2023/08/25 00:38:29;;;;;;;8.30;7.50;;;;;;;17.58;69.61;99279.52;436038;1256;139089;-65
2023/08/25 00:48:35;;;;;;;7.70;6.70;;;;;;;17.65;69.79;99264.85;435930;1257;139557;-66
2023/08/25 00:58:42;;;;;;;7.60;6.50;;;;;;;17.69;69.79;99269.99;435652;1256;139579;-65
2023/08/25 01:08:48;;;;;;;7.70;6.90;;;;;;;17.71;70.00;99258.45;435396;1253;139691;-65
2023/08/25 01:18:55;;;;;;;9.10;7.20;;;;;;;17.76;70.12;99247.82;435250;1257;139156;-65
2023/08/25 01:29:01;;;;;;;7.00;6.20;;;;;;;17.81;70.02;99241.52;435539;1254;141577;-65
2023/08/25 01:39:11;;;;;;;12.60;8.30;;;;;;;17.75;70.07;99232.15;435682;1257;140079;-66
2023/08/25 01:49:20;;;;;;;7.30;6.60;;;;;;;17.64;70.20;99208.80;435768;1257;140380;-66
2023/08/25 01:59:26;;;;;;;9.10;6.80;;;;;;;17.50;70.49;99212.86;435917;1254;139171;-66
2023/08/25 02:09:32;;;;;;;8.50;7.60;;;;;;;17.39;70.92;99197.30;435759;1256;139059;-66
2023/08/25 02:19:38;;;;;;;7.70;6.80;;;;;;;17.32;71.18;99197.08;435897;1253;139309;-65
2023/08/25 02:29:44;;;;;;;8.00;7.10;;;;;;;17.29;71.53;99184.88;435743;1257;140853;-65
2023/08/25 02:39:50;;;;;;;8.20;6.80;;;;;;;17.28;71.91;99175.59;435810;1258;139560;-66
2023/08/25 02:49:56;;;;;;;8.00;6.70;;;;;;;17.30;72.05;99168.83;435995;1256;139970;-66
2023/08/25 03:00:03;;;;;;;8.90;7.80;;;;;;;17.32;72.26;99166.31;435436;1253;139385;-66
2023/08/25 03:10:12;;;;;;;10.40;8.30;;;;;;;17.37;72.48;99175.39;435755;1253;139960;-65
2023/08/25 03:20:16;;;;;;;;;;;;;;;17.44;72.59;99163.08;436057;1257;141193;-66
2023/08/25 03:30:22;;;;;;;11.20;8.20;;;;;;;17.47;72.65;99155.11;435930;1257;126971;-66
2023/08/25 03:40:28;;;;;;;8.10;7.20;;;;;;;17.49;72.65;99149.06;435480;1253;139696;-66
2023/08/25 03:50:34;;;;;;;9.50;7.70;;;;;;;17.49;72.78;99153.50;435877;1257;139647;-65
2023/08/25 04:00:40;;;;;;;8.70;7.80;;;;;;;17.52;72.77;99159.43;435813;1256;139349;-65
2023/08/25 04:10:47;;;;;;;8.80;8.10;;;;;;;17.51;73.03;99147.08;435782;1254;139714;-66
2023/08/25 04:20:53;;;;;;;9.00;7.50;;;;;;;17.51;73.20;99127.83;435857;1256;139250;-65
2023/08/25 04:30:59;;;;;;;9.10;7.30;;;;;;;17.50;73.46;99115.59;435810;1257;139931;-65
2023/08/25 04:41:05;;;;;;;9.70;8.90;;;;;;;17.54;73.78;99109.56;436327;1256;139948;-66
2023/08/25 04:51:11;;;;;;;10.00;8.80;;;;;;;17.60;74.06;99109.45;435620;1256;139176;-67
2023/08/25 05:01:17;;;;;;;9.70;8.70;;;;;;;17.67;74.20;99098.84;435767;1253;140927;-65
2023/08/25 05:11:23;;;;;;;12.90;9.90;;;;;;;17.80;74.16;99082.48;435762;1257;139590;-65
2023/08/25 05:21:29;;;;;;;11.50;9.60;;;;;;;18.01;74.00;99064.23;435488;1253;140624;-65
2023/08/25 05:31:35;;;;;;;10.60;9.60;;;;;;;18.20;73.28;99055.92;435491;1258;140240;-64
2023/08/25 05:41:41;;;;;;;11.30;9.10;;;;;;;18.33;73.00;99082.87;435593;1253;140255;-66
2023/08/25 05:51:47;;;;;;;10.60;9.50;;;;;;;18.41;73.11;99098.77;435525;1257;139204;-65
2023/08/25 06:01:53;;;;;;;11.00;9.90;;;;;;;18.49;73.84;99078.64;435253;1256;139978;-64
2023/08/25 06:11:59;;;;;;;12.40;10.60;;;;;;;18.43;74.28;99058.69;435649;1257;141013;-62
2023/08/25 06:22:06;;;;;;;13.00;10.80;;;;;;;18.42;75.13;99057.13;435607;1257;139769;-62
2023/08/25 06:32:13;;;;;;;12.20;10.90;;;;;;;18.45;75.66;99048.28;435361;1257;140520;-62
2023/08/25 06:42:19;;;;;;;11.00;9.90;;;;;;;18.47;76.13;99040.16;435664;1257;139996;-62
2023/08/25 06:52:25;;;;;;;12.40;11.10;;;;;;;18.52;76.63;99036.96;435625;1255;139481;-62
2023/08/25 07:02:31;;;;;;;10.40;9.50;;;;;;;18.52;76.75;99028.88;435522;1254;140534;-62
2023/08/25 07:12:37;;;;;;;10.90;9.80;;;;;;;18.61;77.17;99029.84;435424;1256;139703;-62
2023/08/25 07:22:43;;;;;;;12.10;10.90;;;;;;;18.75;77.18;99010.03;435300;1256;139651;-63
2023/08/25 07:32:52;;;;;;;10.70;9.60;;;;;;;18.85;77.01;99006.33;435626;1257;139411;-62
2023/08/25 07:43:01;;;;;;;11.10;9.50;;;;;;;18.99;77.34;98997.23;435568;1259;140341;-62
2023/08/25 07:53:08;;;;;;;11.00;9.00;;;;;;;19.26;77.48;98989.73;435679;1257;139317;-62
2023/08/25 08:03:15;;;;;;;10.80;9.50;;;;;;;19.44;77.06;98981.30;435523;1259;139321;-59
2023/08/25 08:13:21;;;;;;;9.90;8.50;;;;;;;19.60;76.95;98988.86;435774;1257;139448;-58
2023/08/25 08:23:27;;;;;;;10.60;9.20;;;;;;;19.84;76.78;98973.71;435664;1257;139347;-59
2023/08/25 08:33:33;;;;;;;10.70;8.80;;;;;;;20.45;76.18;98968.40;435883;1257;140030;-60
2023/08/25 08:43:45;;;;;;;8.20;7.20;;;;;;;21.54;74.54;98960.42;435410;1257;139382;-62
2023/08/25 08:53:53;;;;;;;7.80;7.00;;;;;;;22.74;72.59;98943.70;435556;1257;139186;-61
2023/08/25 09:04:00;;;;;;;;;;;;;;;24.64;69.68;98939.45;435748;1256;139330;-58
2023/08/25 09:14:07;;;;;;;7.10;6.40;;;;;;;25.87;65.50;98955.65;435575;1256;125401;-64
2023/08/25 09:24:20;;;;;;;6.60;6.00;;;;;;;26.36;63.19;98958.80;435785;1257;140940;-62
2023/08/25 09:34:27;;;;;;;5.90;5.30;;;;;;;27.04;61.23;98960.61;435721;1259;140211;-62
2023/08/25 09:44:35;;;;;;;5.70;5.00;;;;;;;27.11;59.72;98949.89;436012;1257;138661;-62
2023/08/25 09:54:41;;;;;;;9.90;6.50;;;;;;;26.89;59.44;98951.38;436217;1256;139877;-61
2023/08/25 10:04:48;;;;;;;4.90;4.30;;;;;;;26.74;58.82;98941.17;435890;1254;138512;-63
2023/08/25 10:14:57;;;;;;;6.60;4.70;;;;;;;27.09;58.34;98938.20;435831;1257;142961;-63
2023/08/25 10:25:04;;;;;;;4.80;4.40;;;;;;;27.94;57.22;98940.73;435559;1257;138542;-66
2023/08/25 10:35:12;;;;;;;7.00;5.20;;;;;;;28.65;55.80;98938.66;435594;1258;138962;-65
2023/08/25 10:45:17;;;;;;;6.80;5.60;;;;;;;29.38;54.28;98935.43;435645;1255;138488;-62
2023/08/25 10:55:29;;;;;;;10.90;5.90;;;;;;;29.64;52.55;98927.18;435227;1257;139903;-63
2023/08/25 11:05:47;;;;;;;5.40;5.00;;;;;;;29.58;51.60;98920.73;435212;1257;139196;-59
2023/08/25 11:15:56;;;;;;;8.60;6.60;;;;;;;29.75;51.27;98928.75;435598;1257;138452;-60
2023/08/25 11:26:02;;;;;;;6.40;5.80;;;;;;;29.86;51.21;98927.63;435286;1254;138581;-62
2023/08/25 11:36:15;;;;;;;7.00;6.00;;;;;;;30.03;50.89;98919.29;435517;1257;139812;-60
2023/08/25 11:46:22;;;;;;;7.50;6.80;;;;;;;29.94;50.64;98914.54;435625;1254;138431;-71
2023/08/25 11:56:28;;;;;;;6.60;5.80;;;;;;;29.94;51.18;98916.59;436992;1254;278196;-67
2023/08/25 12:06:36;;;;;;;5.80;5.30;;;;;;;30.19;51.50;98921.71;436000;1257;138911;-64
2023/08/25 12:16:45;;;;;;;6.20;5.40;;;;;;;30.53;51.25;98918.30;435609;1254;140284;-60
2023/08/25 12:26:52;;;;;;;6.60;5.10;;;;;;;30.86;50.55;98907.98;435626;1254;139433;-64
2023/08/25 12:36:58;;;;;;;9.00;5.60;;;;;;;30.99;49.57;98904.63;435848;1257;138609;-66
2023/08/25 12:47:04;;;;;;;9.50;6.40;;;;;;;30.98;49.35;98900.13;435536;1254;138668;-66
2023/08/25 12:57:12;;;;;;;13.10;5.60;;;;;;;30.82;49.38;98886.74;436151;1254;138382;-66
2023/08/25 13:07:18;;;;;;;8.30;4.70;;;;;;;30.62;49.22;98877.40;435934;1254;138568;-70
2023/08/25 13:17:25;;;;;;;7.70;4.80;;;;;;;30.40;48.81;98869.30;435753;1254;138531;-72
2023/08/25 13:27:31;;;;;;;7.00;4.10;;;;;;;30.34;48.32;98864.55;436697;1257;138378;-67
2023/08/25 13:37:40;;;;;;;5.20;3.70;;;;;;;30.23;47.89;98852.13;435657;1254;138378;-69
2023/08/25 13:47:47;;;;;;;7.90;3.70;;;;;;;30.16;47.87;98852.29;435391;1257;138646;-66
2023/08/25 13:57:53;;;;;;;5.90;4.10;;;;;;;30.21;47.71;98854.48;435467;1254;138765;-69
2023/08/25 14:07:58;;;;;;;;;;;;;;;30.22;47.62;98857.11;435505;1254;140378;-75
2023/08/25 14:18:04;;;;;;;4.60;3.90;;;;;;;30.05;47.34;98868.89;436048;1254;125291;-64
2023/08/25 14:28:10;;;;;;;5.70;4.20;;;;;;;29.96;47.27;98864.40;435623;1257;139176;-65
2023/08/25 14:38:16;;;;;;;7.50;4.10;;;;;;;29.75;47.55;98862.45;435738;1257;138889;-62
2023/08/25 14:48:23;;;;;;;6.20;3.40;;;;;;;29.72;48.23;98858.39;435576;1254;139261;-60
2023/08/25 14:58:28;;;;;;;;;;;;;;;29.76;48.10;98854.41;435299;1257;139090;-60
2023/08/25 15:08:35;;;;;;;4.50;3.30;;;;;;;29.75;47.68;98859.48;435872;1256;126752;-61
2023/08/25 15:18:41;;;;;;;6.10;4.00;;;;;;;29.68;47.55;98863.85;434984;1254;138434;-61
2023/08/25 15:28:47;;;;;;;4.00;2.80;;;;;;;29.67;47.24;98868.95;435477;1257;138755;-60
2023/08/25 15:38:53;;;;;;;2.40;2.10;;;;;;;29.55;47.07;98868.58;435310;1253;139178;-61
2023/08/25 15:49:00;;;;;;;4.50;2.70;;;;;;;29.43;47.23;98867.25;435186;1257;139548;-60
2023/08/25 15:59:05;;;;;;;3.80;2.40;;;;;;;29.31;47.45;98872.80;435730;1254;139307;-60
2023/08/25 16:09:12;;;;;;;5.50;3.90;;;;;;;29.21;47.47;98865.40;435576;1254;138423;-60
2023/08/25 16:19:17;;;;;;;23.80;3.90;;;;;;;29.03;47.57;98865.15;435413;1257;138830;-60
2023/08/25 16:29:23;;;;;;;12.90;3.20;;;;;;;28.83;47.97;98868.64;435379;1254;138855;-60
2023/08/25 16:39:29;;;;;;;4.10;2.60;;;;;;;28.49;48.45;98874.13;435707;1257;138727;-59
2023/08/25 16:49:35;;;;;;;7.50;3.40;;;;;;;27.98;49.20;98886.77;435243;1254;139644;-59
2023/08/25 16:59:41;;;;;;;4.90;3.10;;;;;;;27.43;50.72;98887.23;435871;1253;138692;-62
2023/08/25 17:09:47;;;;;;;8.30;3.70;;;;;;;26.99;51.77;98888.34;435457;1253;138683;-59
2023/08/25 17:19:53;;;;;;;9.70;3.40;;;;;;;26.67;53.34;98894.51;435491;1253;138618;-59
2023/08/25 17:29:59;;;;;;;4.00;3.60;;;;;;;26.35;55.11;98901.44;435410;1257;138706;-59
2023/08/25 17:40:07;;;;;;;11.40;4.20;;;;;;;26.01;55.93;98896.70;435625;1254;138382;-60
2023/08/25 17:50:13;;;;;;;12.20;4.60;;;;;;;25.70;57.52;98881.35;435488;1256;138529;-60
2023/08/25 18:00:20;;;;;;;8.40;4.10;;;;;;;25.47;59.40;98868.05;435123;1256;138768;-58
2023/08/25 18:10:28;;;;;;;6.60;5.00;;;;;;;25.28;60.25;98853.55;435751;1256;140391;-60
2023/08/25 18:20:35;;;;;;;12.40;6.30;;;;;;;25.12;60.97;98846.27;437121;1252;139381;-59
2023/08/25 18:30:40;;;;;;;6.50;5.80;;;;;;;25.00;61.14;98826.81;435347;1253;139380;-59
2023/08/25 18:40:46;;;;;;;7.30;5.20;;;;;;;24.88;62.01;98822.55;435568;1256;139731;-58
2023/08/25 18:50:52;;;;;;;11.20;5.70;;;;;;;24.78;62.23;98824.71;435552;1253;139340;-59
2023/08/25 19:00:58;;;;;;;11.00;7.20;;;;;;;24.71;62.63;98848.86;435296;1256;140120;-60
2023/08/25 19:11:05;;;;;;;10.10;5.90;;;;;;;24.60;63.85;98865.30;436439;1252;139353;-59
2023/08/25 19:21:11;;;;;;;10.80;6.10;;;;;;;24.43;64.74;98877.58;436172;1254;140237;-64
2023/08/25 19:31:17;;;;;;;12.90;6.40;;;;;;;24.26;65.69;98885.62;435187;1255;140241;-60
2023/08/25 19:41:23;;;;;;;6.50;5.80;;;;;;;24.10;66.58;98882.92;435407;1254;139312;-59
2023/08/25 19:51:29;;;;;;;6.90;5.90;;;;;;;24.00;67.48;98878.23;435346;1253;139256;-59
2023/08/25 20:01:35;;;;;;;10.40;7.10;;;;;;;23.85;68.25;98886.55;435394;1254;140078;-59
2023/08/25 20:11:41;;;;;;;10.60;6.30;;;;;;;23.74;69.08;98894.62;435481;1256;139721;-60
2023/08/25 20:21:47;;;;;;;8.90;7.90;;;;;;;23.63;69.93;98894.27;435382;1257;139723;-61
2023/08/25 20:31:53;;;;;;;9.60;7.80;;;;;;;23.51;70.52;98899.69;435456;1256;140555;-59
2023/08/25 20:41:59;;;;;;;12.60;7.90;;;;;;;23.41;71.45;98900.96;435322;1257;140255;-59
2023/08/25 20:52:05;;;;;;;9.80;7.40;;;;;;;23.25;71.83;98906.02;435518;1257;140245;-60
2023/08/25 21:02:11;;;;;;;10.10;9.00;;;;;;;23.09;72.65;98917.33;435715;1255;139486;-59
2023/08/25 21:12:18;;;;;;;11.40;9.00;;;;;;;22.95;73.21;98910.20;435616;1253;141371;-59
2023/08/25 21:22:24;;;;;;;16.60;15.00;;;;;;;22.87;73.71;98906.19;435338;1254;140112;-60
2023/08/25 21:32:29;;;;;;;9.50;8.10;;;;;;;22.82;74.22;98905.41;437024;1257;140910;-59
2023/08/25 21:42:35;;;;;;;10.70;8.80;;;;;;;22.77;74.62;98903.70;435100;1253;139215;-60
2023/08/25 21:52:42;;;;;;;14.90;8.60;;;;;;;22.74;74.76;98902.19;434988;1253;140074;-58
2023/08/25 22:02:48;;;;;;;13.00;8.40;;;;;;;22.76;74.72;98878.20;435611;1253;139743;-60
2023/08/25 22:12:55;;;;;;;9.70;8.30;;;;;;;22.73;74.97;98886.04;435016;1256;140913;-60
2023/08/25 22:23:01;;;;;;;10.60;8.40;;;;;;;22.69;75.25;98882.31;435847;1256;139795;-59
2023/08/25 22:33:08;;;;;;;13.30;8.60;;;;;;;22.58;75.62;98872.59;435525;1257;139912;-60
2023/08/25 22:43:16;;;;;;;9.20;8.10;;;;;;;22.46;76.28;98875.98;435484;1256;139959;-59
2023/08/25 22:53:26;;;;;;;10.70;8.00;;;;;;;22.39;76.65;98903.08;435375;1253;140066;-59
2023/08/25 23:03:33;;;;;;;13.20;8.40;;;;;;;22.29;77.93;98943.59;436708;1257;139180;-59
2023/08/25 23:13:39;;;;;;;12.70;9.10;;;;;;;22.02;79.94;98913.55;435608;1257;139412;-61
2023/08/25 23:23:45;;;;;;;10.10;8.70;;;;;;;21.61;81.83;98854.64;434924;1256;139959;-59
2023/08/25 23:33:52;;;;;;;14.00;11.00;;;;;;;21.36;83.44;98856.77;435165;1257;139857;-62
2023/08/25 23:43:58;;;;;;;11.50;10.50;;;;;;;21.14;84.73;98858.37;435153;1256;139863;-61
2023/08/25 23:54:04;;;;;;;10.20;9.20;;;;;;;20.93;86.41;98859.77;435814;1254;140271;-59
